createdAt,value
2019-05-10T00:01:15.981Z,99921.49
2019-05-10T00:03:40.047Z,99921.83
2019-05-10T00:06:04.446Z,99921.78
2019-05-10T00:08:30.158Z,99929.16
2019-05-10T00:10:36.918Z,99921.60
2019-05-10T00:12:44.824Z,99930.48
2019-05-10T00:14:52.659Z,99932.25
2019-05-10T00:17:04.030Z,99935.28
2019-05-10T00:19:21.239Z,99932.66
2019-05-10T00:21:30.413Z,99934.77
2019-05-10T00:23:41.276Z,99929.92
2019-05-10T00:25:56.369Z,99932.95
2019-05-10T00:27:59.467Z,99932.50
2019-05-10T00:30:11.681Z,99938.57
2019-05-10T00:32:18.022Z,99938.06
2019-05-10T00:34:24.604Z,99938.06
2019-05-10T00:36:30.946Z,99936.67
2019-05-10T00:38:37.328Z,99938.38
2019-05-10T00:40:44.289Z,99937.94
2019-05-10T00:42:50.666Z,99935.31
2019-05-10T00:44:57.542Z,99937.94
2019-05-10T00:47:04.544Z,99940.95
2019-05-10T00:49:11.317Z,99940.55
2019-05-10T00:51:17.738Z,99939.64
2019-05-10T00:53:23.983Z,99937.84
2019-05-10T00:55:30.467Z,99943.58
2019-05-10T00:57:38.163Z,99942.32
2019-05-10T00:59:44.537Z,99949.73
2019-05-10T01:01:51.088Z,99943.58
2019-05-10T01:03:57.420Z,99943.50
2019-05-10T01:06:03.881Z,99941.87
2019-05-10T01:08:10.293Z,99944.89
2019-05-10T01:10:18.077Z,99943.90
2019-05-10T01:12:24.603Z,99943.81
2019-05-10T01:14:30.896Z,99951.23
2019-05-10T01:16:37.388Z,99948.16
2019-05-10T01:18:43.951Z,99942.05
2019-05-10T01:20:50.622Z,99942.50
2019-05-10T01:22:56.983Z,99945.48
2019-05-10T01:25:03.328Z,99947.62
2019-05-10T01:27:09.598Z,99948.02
2019-05-10T01:29:17.816Z,99948.93
2019-05-10T01:31:24.484Z,99949.92
2019-05-10T01:33:30.844Z,99951.31
2019-05-10T01:35:37.186Z,99956.48
2019-05-10T01:37:45.220Z,99949.92
2019-05-10T01:39:51.670Z,99959.91
2019-05-10T01:41:58.035Z,99952.95
2019-05-10T01:44:04.590Z,99956.80
2019-05-10T01:46:11.169Z,99955.48
2019-05-10T01:48:18.029Z,99953.35
2019-05-10T01:50:24.418Z,99952.09
2019-05-10T01:52:31.148Z,99954.17
2019-05-10T01:54:38.124Z,99955.89
2019-05-10T01:56:46.425Z,99953.41
2019-05-10T01:58:53.028Z,99952.87
2019-05-10T02:01:00.547Z,99955.17
2019-05-10T02:03:08.227Z,99956.89
2019-05-10T02:05:17.034Z,99956.89
2019-05-10T02:07:23.399Z,99956.56
2019-05-10T02:09:33.271Z,99951.23
2019-05-10T02:11:37.860Z,99950.83
2019-05-10T02:13:45.956Z,99950.95
2019-05-10T02:15:52.642Z,99952.86
2019-05-10T02:17:59.115Z,99961.14
2019-05-10T02:20:08.895Z,99957.52
2019-05-10T02:22:15.273Z,99954.30
2019-05-10T02:24:21.667Z,99951.81
2019-05-10T02:26:28.529Z,99954.13
2019-05-10T02:28:34.897Z,99952.09
2019-05-10T02:30:41.258Z,99955.84
2019-05-10T02:32:47.698Z,99954.80
2019-05-10T02:34:53.969Z,99954.53
2019-05-10T02:37:02.008Z,99949.02
2019-05-10T02:39:10.238Z,99957.42
2019-05-10T02:41:16.553Z,99952.09
2019-05-10T02:43:24.346Z,99957.92
2019-05-10T02:45:30.818Z,99957.25
2019-05-10T02:47:40.774Z,99960.25
2019-05-10T02:49:47.019Z,99961.23
2019-05-10T02:51:53.386Z,99967.80
2019-05-10T02:54:00.956Z,99968.06
2019-05-10T02:56:07.440Z,99970.67
2019-05-10T03:00:31.181Z,99976.75
2019-05-10T03:02:39.338Z,99975.98
2019-05-10T03:04:48.024Z,99975.89
2019-05-10T03:07:03.693Z,99979.91
2019-05-10T03:09:10.212Z,99978.06
2019-05-10T03:11:17.189Z,99974.84
2019-05-10T03:13:29.186Z,99981.95
2019-05-10T03:15:39.179Z,99980.77
2019-05-10T03:17:48.064Z,99985.03
2019-05-10T03:19:55.412Z,99986.47
2019-05-10T03:22:07.579Z,99986.02
2019-05-10T03:24:14.407Z,99984.58
2019-05-10T03:26:21.081Z,99982.12
2019-05-10T03:28:29.180Z,99981.81
2019-05-10T03:30:35.953Z,99980.95
2019-05-10T03:32:42.497Z,99980.95
2019-05-10T03:34:49.078Z,99986.84
2019-05-10T03:36:56.363Z,99987.55
2019-05-10T03:39:02.715Z,99986.05
2019-05-10T03:41:09.282Z,99987.36
2019-05-10T03:43:15.866Z,99987.41
2019-05-10T03:45:22.212Z,99987.67
2019-05-10T03:47:28.568Z,99990.31
2019-05-10T03:49:34.861Z,99995.17
2019-05-10T03:51:41.414Z,99994.55
2019-05-10T03:53:47.770Z,99993.00
2019-05-10T03:55:54.153Z,99990.61
2019-05-10T03:58:00.913Z,99992.49
2019-05-10T04:00:11.637Z,99991.05
2019-05-10T04:02:18.129Z,99995.30
2019-05-10T04:04:25.925Z,99994.82
2019-05-10T04:06:33.109Z,99997.28
2019-05-10T04:08:39.604Z,99992.93
2019-05-10T04:10:47.389Z,99997.58
2019-05-10T04:12:53.732Z,99991.06
2019-05-10T04:15:00.109Z,99996.27
2019-05-10T04:17:06.461Z,99996.67
2019-05-10T04:19:14.170Z,99989.98
2019-05-10T04:21:23.291Z,99995.39
2019-05-10T04:23:29.658Z,99999.80
2019-05-10T04:25:37.633Z,99993.81
2019-05-10T04:27:44.286Z,99996.17
2019-05-10T04:29:50.692Z,100000.67
2019-05-10T04:31:57.253Z,100001.45
2019-05-10T04:34:03.610Z,100005.84
2019-05-10T04:36:12.556Z,99998.94
2019-05-10T04:38:17.984Z,100000.12
2019-05-10T04:40:27.447Z,100001.23
2019-05-10T04:42:33.867Z,100002.25
2019-05-10T04:44:40.242Z,100000.63
2019-05-10T04:46:46.596Z,100004.99
2019-05-10T04:48:52.952Z,100009.49
2019-05-10T04:51:00.615Z,100010.22
2019-05-10T04:53:07.025Z,100005.61
2019-05-10T04:55:13.496Z,100016.36
2019-05-10T04:57:19.939Z,100016.79
2019-05-10T04:59:26.279Z,100015.43
2019-05-10T05:01:32.766Z,100022.71
2019-05-10T05:03:40.010Z,100020.03
2019-05-10T05:05:46.449Z,100017.06
2019-05-10T05:07:54.639Z,100017.65
2019-05-10T05:10:04.478Z,100021.52
2019-05-10T05:12:10.957Z,100017.77
2019-05-10T05:14:17.428Z,100024.67
2019-05-10T05:16:24.188Z,100026.48
2019-05-10T05:18:31.983Z,100029.38
2019-05-10T05:20:38.330Z,100033.45
2019-05-10T05:22:44.714Z,100039.16
2019-05-10T05:24:55.249Z,100038.21
2019-05-10T05:26:59.171Z,100039.29
2019-05-10T05:29:05.631Z,100033.28
2019-05-10T05:31:12.308Z,100041.92
2019-05-10T05:33:18.886Z,100039.34
2019-05-10T05:35:25.641Z,100041.23
2019-05-10T05:37:32.104Z,100039.34
2019-05-10T05:39:38.556Z,100039.16
2019-05-10T05:41:51.764Z,100040.18
2019-05-10T05:43:54.677Z,100045.35
2019-05-10T05:46:01.038Z,100046.44
2019-05-10T05:48:09.548Z,100046.96
2019-05-10T05:50:16.208Z,100045.48
2019-05-10T05:52:23.103Z,100044.50
2019-05-10T05:54:31.033Z,100050.36
2019-05-10T05:56:37.367Z,100052.57
2019-05-10T05:58:47.095Z,100052.25
2019-05-10T06:00:54.591Z,100050.40
2019-05-10T06:03:00.961Z,100051.66
2019-05-10T06:05:10.473Z,100050.86
2019-05-10T06:07:16.747Z,100056.88
2019-05-10T06:09:24.338Z,100057.87
2019-05-10T06:11:35.827Z,100059.09
2019-05-10T06:13:40.242Z,100054.28
2019-05-10T06:15:46.810Z,100050.00
2019-05-10T06:17:56.997Z,100061.09
2019-05-10T06:20:05.924Z,100062.80
2019-05-10T06:22:10.614Z,100064.19
2019-05-10T06:24:17.397Z,100064.77
2019-05-10T06:26:28.398Z,100067.05
2019-05-10T06:28:56.851Z,100069.24
2019-05-10T06:30:40.049Z,100068.02
2019-05-10T06:32:46.815Z,100068.78
2019-05-10T06:34:53.400Z,100070.85
2019-05-10T06:36:59.850Z,100070.19
2019-05-10T06:39:08.817Z,100073.59
2019-05-10T06:41:16.623Z,100073.30
2019-05-10T06:43:23.330Z,100073.28
2019-05-10T06:45:30.949Z,100075.13
2019-05-10T06:47:42.094Z,100074.94
2019-05-10T06:49:50.806Z,100071.41
2019-05-10T06:51:53.814Z,100073.09
2019-05-10T06:54:00.390Z,100076.69
2019-05-10T06:56:06.790Z,100075.86
2019-05-10T06:58:13.211Z,100074.91
2019-05-10T07:00:20.593Z,100073.86
2019-05-10T07:02:32.203Z,100073.02
2019-05-10T07:04:40.770Z,100076.91
2019-05-10T07:06:43.781Z,100069.46
2019-05-10T07:08:51.767Z,100080.20
2019-05-10T07:10:59.577Z,100080.13
2019-05-10T07:13:06.633Z,100078.49
2019-05-10T07:15:14.108Z,100074.44
2019-05-10T07:17:20.602Z,100075.88
2019-05-10T07:19:28.871Z,100078.14
2019-05-10T07:21:39.136Z,100081.17
2019-05-10T07:23:44.727Z,100085.61
2019-05-10T07:25:52.463Z,100083.80
2019-05-10T07:27:58.979Z,100086.72
2019-05-10T07:30:07.053Z,100086.30
2019-05-10T07:32:16.511Z,100073.59
2019-05-10T07:34:21.762Z,100078.19
2019-05-10T07:36:31.257Z,100080.78
2019-05-10T07:38:37.639Z,100076.61
2019-05-10T07:40:44.116Z,100073.55
2019-05-10T07:42:51.929Z,100075.48
2019-05-10T07:45:00.433Z,100077.05
2019-05-10T07:47:06.898Z,100077.16
2019-05-10T07:49:13.569Z,100073.31
2019-05-10T07:51:22.743Z,100078.97
2019-05-10T07:53:28.835Z,100072.69
2019-05-10T07:55:35.422Z,100072.70
2019-05-10T07:57:41.797Z,100078.44
2019-05-10T07:59:50.898Z,100075.44
2019-05-10T08:01:56.548Z,100073.34
2019-05-10T08:04:03.118Z,100081.35
2019-05-10T08:06:09.682Z,100084.86
2019-05-10T08:08:16.042Z,100079.28
2019-05-10T08:10:24.763Z,100087.16
2019-05-10T08:12:35.184Z,100091.19
2019-05-10T08:14:39.530Z,100091.06
2019-05-10T08:16:49.829Z,100092.68
2019-05-10T08:18:55.836Z,100091.33
2019-05-10T08:21:17.971Z,100094.41
2019-05-10T08:23:13.073Z,100102.22
2019-05-10T08:25:19.331Z,100099.28
2019-05-10T08:27:26.004Z,100094.13
2019-05-10T08:29:33.581Z,100091.58
2019-05-10T08:31:47.039Z,100100.42
2019-05-10T08:33:56.220Z,100094.91
2019-05-10T08:36:00.550Z,100103.08
2019-05-10T08:38:05.089Z,100099.57
2019-05-10T08:40:12.787Z,100104.97
2019-05-10T08:42:34.790Z,100105.77
2019-05-10T08:44:27.439Z,100106.92
2019-05-10T08:46:40.897Z,100114.53
2019-05-10T08:48:46.202Z,100111.02
2019-05-10T08:50:56.864Z,100116.02
2019-05-10T08:53:02.368Z,100112.69
2019-05-10T08:55:08.886Z,100109.69
2019-05-10T08:59:44.272Z,100111.66
2019-05-10T09:01:53.556Z,100114.67
2019-05-10T09:04:00.838Z,100119.43
2019-05-10T09:06:11.706Z,100120.38
2019-05-10T09:08:20.346Z,100124.14
2019-05-10T09:10:25.293Z,100126.41
2019-05-10T09:12:32.923Z,100129.86
2019-05-10T09:14:39.772Z,100120.53
2019-05-10T09:16:56.291Z,100123.44
2019-05-10T09:18:54.110Z,100125.41
2019-05-10T09:21:08.478Z,100127.28
2019-05-10T09:23:15.248Z,100131.71
2019-05-10T09:25:29.184Z,100129.94
2019-05-10T09:27:29.446Z,100132.83
2019-05-10T09:29:37.521Z,100139.14
2019-05-10T09:31:50.307Z,100137.19
2019-05-10T09:33:54.410Z,100141.25
2019-05-10T09:36:02.979Z,100137.09
2019-05-10T09:38:12.304Z,100141.13
2019-05-10T09:40:18.284Z,100134.38
2019-05-10T09:42:30.650Z,100142.03
2019-05-10T09:44:33.104Z,100149.42
2019-05-10T09:46:42.037Z,100152.13
2019-05-10T09:48:47.983Z,100147.27
2019-05-10T09:50:55.987Z,100151.14
2019-05-10T09:53:04.072Z,100141.89
2019-05-10T09:55:14.654Z,100148.11
2019-05-10T09:57:18.751Z,100151.02
2019-05-10T09:59:25.095Z,100149.45
2019-05-10T10:01:31.472Z,100149.45
2019-05-10T10:03:44.973Z,100144.52
2019-05-10T10:06:05.086Z,100154.15
2019-05-10T10:08:11.040Z,100148.53
2019-05-10T10:10:28.517Z,100152.81
2019-05-10T10:12:28.920Z,100145.16
2019-05-10T10:14:39.380Z,100152.87
2019-05-10T10:16:48.949Z,100148.66
2019-05-10T10:18:51.046Z,100150.69
2019-05-10T10:20:58.538Z,100143.25
2019-05-10T10:23:07.579Z,100143.13
2019-05-10T10:25:14.397Z,100152.58
2019-05-10T10:27:20.591Z,100152.27
2019-05-10T10:29:28.692Z,100153.41
2019-05-10T10:31:46.536Z,100153.66
2019-05-10T10:33:54.825Z,100155.61
2019-05-10T10:35:56.196Z,100152.23
2019-05-10T10:38:03.110Z,100154.84
2019-05-10T10:40:09.616Z,100156.19
2019-05-10T10:42:17.676Z,100159.51
2019-05-10T10:44:26.913Z,100160.32
2019-05-10T10:46:34.799Z,100153.63
2019-05-10T10:48:43.734Z,100154.44
2019-05-10T10:50:55.565Z,100153.91
2019-05-10T10:52:58.536Z,100146.66
2019-05-10T10:57:19.963Z,100150.02
2019-05-10T10:59:28.226Z,100156.91
2019-05-10T11:01:49.136Z,100150.05
2019-05-10T11:03:48.743Z,100155.47
2019-05-10T11:05:54.132Z,100162.74
2019-05-10T11:08:14.845Z,100158.03
2019-05-10T11:10:18.575Z,100156.53
2019-05-10T11:12:23.954Z,100154.09
2019-05-10T11:14:39.856Z,100159.09
2019-05-10T11:16:46.622Z,100164.52
2019-05-10T11:18:55.010Z,100155.20
2019-05-10T11:21:02.103Z,100157.05
2019-05-10T11:23:10.688Z,100165.78
2019-05-10T11:25:17.093Z,100162.81
2019-05-10T11:27:23.463Z,100166.29
2019-05-10T11:29:30.824Z,100158.83
2019-05-10T11:31:41.345Z,100155.18
2019-05-10T11:33:56.135Z,100163.38
2019-05-10T11:35:57.664Z,100165.57
2019-05-10T11:38:06.768Z,100165.99
2019-05-10T11:40:18.005Z,100155.08
2019-05-10T11:42:21.557Z,100153.05
2019-05-10T11:44:27.865Z,100151.23
2019-05-10T11:46:34.455Z,100147.58
2019-05-10T11:48:42.249Z,100149.92
2019-05-10T11:50:51.357Z,100152.34
2019-05-10T11:52:57.017Z,100157.55
2019-05-10T11:55:04.603Z,100154.88
2019-05-10T11:57:13.751Z,100156.94
2019-05-10T11:59:21.829Z,100155.89
2019-05-10T12:01:27.702Z,100158.46
2019-05-10T12:03:34.255Z,100159.30
2019-05-10T12:05:42.485Z,100154.45
2019-05-10T12:07:54.192Z,100159.05
2019-05-10T12:10:07.532Z,100157.84
2019-05-10T12:12:11.977Z,100158.55
2019-05-10T12:14:16.520Z,100155.77
2019-05-10T12:16:23.196Z,100147.89
2019-05-10T12:18:35.649Z,100152.14
2019-05-10T12:20:54.427Z,100152.16
2019-05-10T12:22:47.754Z,100151.67
2019-05-10T12:25:18.735Z,100153.98
2019-05-10T12:27:17.251Z,100147.06
2019-05-10T12:29:15.564Z,100158.30
2019-05-10T12:31:21.008Z,100158.56
2019-05-10T12:33:27.932Z,100156.27
2019-05-10T12:35:39.317Z,100160.84
2019-05-10T12:37:46.190Z,100156.39
2019-05-10T12:39:52.931Z,100156.47
2019-05-10T12:41:58.584Z,100164.26
2019-05-10T12:44:08.017Z,100160.97
2019-05-10T12:46:14.581Z,100168.15
2019-05-10T12:48:23.229Z,100165.94
2019-05-10T12:50:29.357Z,100165.94
2019-05-10T12:52:35.940Z,100167.41
2019-05-10T12:54:44.464Z,100164.38
2019-05-10T12:56:50.505Z,100161.58
2019-05-10T12:58:59.292Z,100163.98
2019-05-10T13:01:04.959Z,100169.63
2019-05-10T13:03:13.313Z,100168.55
2019-05-10T13:05:30.789Z,100170.97
2019-05-10T13:07:27.847Z,100171.42
2019-05-10T13:09:39.882Z,100165.09
2019-05-10T13:11:42.306Z,100168.04
2019-05-10T13:13:52.023Z,100172.34
2019-05-10T13:16:03.697Z,100173.40
2019-05-10T13:18:08.653Z,100167.76
2019-05-10T13:20:15.523Z,100162.58
2019-05-10T13:22:21.893Z,100160.50
2019-05-10T13:24:28.671Z,100161.86
2019-05-10T13:26:35.040Z,100165.80
2019-05-10T13:28:41.817Z,100166.08
2019-05-10T13:30:49.607Z,100167.20
2019-05-10T13:32:58.559Z,100164.09
2019-05-10T13:35:06.988Z,100170.55
2019-05-10T13:37:23.254Z,100174.30
2019-05-10T13:39:25.650Z,100171.20
2019-05-10T13:41:29.422Z,100172.53
2019-05-10T13:43:35.864Z,100173.13
2019-05-10T13:45:42.753Z,100171.58
2019-05-10T13:47:50.328Z,100179.03
2019-05-10T13:49:56.701Z,100178.92
2019-05-10T13:52:03.144Z,100174.95
2019-05-10T13:54:09.769Z,100177.66
2019-05-10T13:56:16.546Z,100187.37
2019-05-10T13:58:23.073Z,100181.69
2019-05-10T14:00:34.050Z,100183.39
2019-05-10T14:02:38.249Z,100183.51
2019-05-10T14:04:44.621Z,100185.66
2019-05-10T14:06:50.992Z,100193.05
2019-05-10T14:08:57.665Z,100195.59
2019-05-10T14:11:04.123Z,100190.44
2019-05-10T14:13:10.672Z,100191.54
2019-05-10T14:15:19.294Z,100193.50
2019-05-10T14:17:26.282Z,100195.12
2019-05-10T14:19:35.926Z,100191.05
2019-05-10T14:21:40.744Z,100195.48
2019-05-10T14:23:47.601Z,100199.63
2019-05-10T14:25:55.683Z,100197.70
2019-05-10T14:28:09.467Z,100202.64
2019-05-10T14:30:15.831Z,100198.61
2019-05-10T14:32:20.295Z,100202.13
2019-05-10T14:34:26.902Z,100196.59
2019-05-10T14:36:40.698Z,100195.34
2019-05-10T14:38:47.533Z,100200.83
2019-05-10T14:40:51.921Z,100206.70
2019-05-10T14:42:58.289Z,100206.47
2019-05-10T14:45:05.764Z,100207.17
2019-05-10T14:47:13.164Z,100211.08
2019-05-10T14:49:20.775Z,100210.28
2019-05-10T14:51:40.315Z,100213.92
2019-05-10T14:53:35.425Z,100210.64
2019-05-10T14:55:42.176Z,100211.74
2019-05-10T14:57:50.498Z,100216.82
2019-05-10T14:59:57.082Z,100217.45
2019-05-10T15:02:03.644Z,100215.73
2019-05-10T15:04:10.225Z,100222.86
2019-05-10T15:06:16.889Z,100225.53
2019-05-10T15:08:23.532Z,100230.88
2019-05-10T15:10:33.180Z,100241.06
2019-05-10T15:12:38.021Z,100239.12
2019-05-10T15:14:44.688Z,100236.42
2019-05-10T15:16:51.351Z,100240.28
2019-05-10T15:18:59.361Z,100244.66
2019-05-10T15:21:06.348Z,100251.47
2019-05-10T15:23:13.012Z,100271.89
2019-05-10T15:25:19.887Z,100271.39
2019-05-10T15:27:26.348Z,100285.95
2019-05-10T15:29:33.836Z,100285.52
2019-05-10T15:31:42.751Z,100292.33
2019-05-10T15:33:49.429Z,100287.33
2019-05-10T15:35:55.874Z,100293.14
2019-05-10T15:38:02.620Z,100293.75
2019-05-10T15:40:12.080Z,100294.69
2019-05-10T15:42:21.800Z,100290.81
2019-05-10T15:44:31.541Z,100293.56
2019-05-10T15:46:41.721Z,100295.95
2019-05-10T15:48:44.192Z,100304.35
2019-05-10T15:50:51.698Z,100309.44
2019-05-10T15:52:58.362Z,100306.76
2019-05-10T15:55:06.607Z,100303.05
2019-05-10T15:57:20.005Z,100315.24
2019-05-10T15:59:22.995Z,100318.00
2019-05-10T16:01:30.785Z,100318.78
2019-05-10T16:03:39.197Z,100322.44
2019-05-10T16:05:58.849Z,100318.96
2019-05-10T16:07:53.875Z,100324.72
2019-05-10T16:10:00.444Z,100328.40
2019-05-10T16:12:08.664Z,100321.39
2019-05-10T16:14:15.318Z,100325.17
2019-05-10T16:16:22.292Z,100319.50
2019-05-10T16:18:33.334Z,100319.98
2019-05-10T16:20:39.107Z,100318.37
2019-05-10T16:22:45.980Z,100324.81
2019-05-10T16:24:52.901Z,100323.95
2019-05-10T16:27:00.029Z,100321.50
2019-05-10T16:29:07.630Z,100330.41
2019-05-10T16:31:14.297Z,100330.41
2019-05-10T16:33:21.640Z,100330.95
2019-05-10T16:35:38.493Z,100336.83
2019-05-10T16:37:37.674Z,100331.62
2019-05-10T16:39:44.466Z,100330.88
2019-05-10T16:41:50.918Z,100334.55
2019-05-10T16:44:01.334Z,100333.31
2019-05-10T16:46:07.934Z,100338.70
2019-05-10T16:48:15.740Z,100336.94
2019-05-10T16:50:26.185Z,100334.72
2019-05-10T16:52:31.641Z,100331.39
2019-05-10T16:54:40.766Z,100337.73
2019-05-10T16:56:51.746Z,100340.34
2019-05-10T16:58:55.204Z,100340.38
2019-05-10T17:01:03.345Z,100342.48
2019-05-10T17:03:13.199Z,100343.25
2019-05-10T17:05:21.169Z,100343.44
2019-05-10T17:07:28.562Z,100347.37
2019-05-10T17:09:35.652Z,100352.03
2019-05-10T17:11:46.804Z,100353.83
2019-05-10T17:13:50.322Z,100358.86
2019-05-10T17:15:56.686Z,100360.11
2019-05-10T17:18:04.533Z,100370.14
2019-05-10T17:20:14.732Z,100368.28
2019-05-10T17:22:21.298Z,100365.52
2019-05-10T17:24:27.841Z,100373.66
2019-05-10T17:26:34.734Z,100381.52
2019-05-10T17:28:41.505Z,100386.21
2019-05-10T17:30:47.880Z,100389.33
2019-05-10T17:32:57.805Z,100391.67
2019-05-10T17:35:05.322Z,100392.13
2019-05-10T17:37:13.554Z,100400.43
2019-05-10T17:39:20.199Z,100395.58
2019-05-10T17:41:27.061Z,100398.19
2019-05-10T17:43:33.885Z,100402.92
2019-05-10T17:45:42.254Z,100398.27
2019-05-10T17:47:50.146Z,100400.34
2019-05-10T17:49:58.170Z,100401.13
2019-05-10T17:52:05.121Z,100397.42
2019-05-10T17:54:11.546Z,100402.49
2019-05-10T17:56:19.594Z,100401.73
2019-05-10T17:58:27.948Z,100396.63
2019-05-10T18:00:34.374Z,100391.58
2019-05-10T18:02:40.859Z,100399.23
2019-05-10T18:04:47.192Z,100403.27
2019-05-10T18:06:53.648Z,100400.51
2019-05-10T18:09:00.120Z,100411.27
2019-05-10T18:11:09.467Z,100408.00
2019-05-10T18:13:15.800Z,100410.00
2019-05-10T18:15:22.373Z,100414.67
2019-05-10T18:17:28.749Z,100415.77
2019-05-10T18:19:35.087Z,100418.30
2019-05-10T18:21:41.486Z,100422.03
2019-05-10T18:23:52.681Z,100417.77
2019-05-10T18:25:58.651Z,100420.59
2019-05-10T18:28:05.987Z,100419.89
2019-05-10T18:30:13.310Z,100417.25
2019-05-10T18:32:20.073Z,100419.97
2019-05-10T18:34:33.053Z,100422.71
2019-05-10T18:36:51.169Z,100423.34
2019-05-10T18:38:43.954Z,100420.94
2019-05-10T18:40:50.840Z,100435.73
2019-05-10T18:43:03.044Z,100437.29
2019-05-10T18:45:08.627Z,100435.83
2019-05-10T18:47:15.546Z,100436.92
2019-05-10T18:49:22.209Z,100435.37
2019-05-10T18:51:28.910Z,100443.56
2019-05-10T18:53:35.457Z,100439.30
2019-05-10T18:55:41.817Z,100444.77
2019-05-10T18:57:50.758Z,100451.23
2019-05-10T18:59:56.379Z,100451.63
2019-05-10T19:02:03.169Z,100452.09
2019-05-10T19:04:14.222Z,100458.62
2019-05-10T19:06:18.735Z,100464.44
2019-05-10T19:08:28.524Z,100462.32
2019-05-10T19:10:36.412Z,100470.30
2019-05-10T19:12:43.400Z,100471.55
2019-05-10T19:14:52.182Z,100477.35
2019-05-10T19:17:03.693Z,100489.47
2019-05-10T19:19:06.866Z,100486.48
2019-05-10T19:21:15.032Z,100489.52
2019-05-10T19:23:21.850Z,100491.19
2019-05-10T19:25:28.196Z,100491.63
2019-05-10T19:27:38.853Z,100497.71
2019-05-10T19:29:46.090Z,100498.92
2019-05-10T19:31:54.357Z,100501.55
2019-05-10T19:34:00.746Z,100500.15
2019-05-10T19:36:12.513Z,100513.20
2019-05-10T19:38:17.258Z,100507.87
2019-05-10T19:40:24.547Z,100507.29
2019-05-10T19:42:37.385Z,100510.20
2019-05-10T19:44:42.231Z,100509.16
2019-05-10T19:46:49.244Z,100517.28
2019-05-10T19:48:55.617Z,100519.20
2019-05-10T19:51:02.846Z,100520.11
2019-05-10T19:53:13.449Z,100517.06
2019-05-10T19:55:21.751Z,100511.43
2019-05-10T19:57:28.225Z,100507.53
2019-05-10T19:59:34.587Z,100509.30
2019-05-10T20:01:44.773Z,100510.63
2019-05-10T20:03:51.495Z,100510.22
2019-05-10T20:06:00.761Z,100509.44
2019-05-10T20:08:07.085Z,100512.16
2019-05-10T20:10:14.503Z,100513.06
2019-05-10T20:12:21.063Z,100506.99
2019-05-10T20:14:27.735Z,100510.94
2019-05-10T20:16:34.223Z,100512.39
2019-05-10T20:18:42.271Z,100517.74
2019-05-10T20:20:48.667Z,100519.06
2019-05-10T20:22:55.395Z,100519.65
2019-05-10T20:25:02.204Z,100514.97
2019-05-10T20:27:08.661Z,100523.00
2019-05-10T20:29:15.314Z,100521.73
2019-05-10T20:31:21.976Z,100522.81
2019-05-10T20:33:28.415Z,100526.89
2019-05-10T20:35:38.607Z,100526.81
2019-05-10T20:38:00.344Z,100520.23
2019-05-10T20:39:53.186Z,100527.13
2019-05-10T20:41:59.577Z,100528.45
2019-05-10T20:44:07.116Z,100526.62
2019-05-10T20:46:13.809Z,100534.98
2019-05-10T20:48:20.612Z,100534.91
2019-05-10T20:50:28.705Z,100537.67
2019-05-10T20:52:36.169Z,100532.94
2019-05-10T20:54:42.653Z,100534.30
2019-05-10T20:56:50.549Z,100532.98
2019-05-10T20:58:57.291Z,100539.65
2019-05-10T21:01:05.694Z,100536.16
2019-05-10T21:03:13.876Z,100531.80
2019-05-10T21:05:20.719Z,100540.69
2019-05-10T21:07:27.399Z,100543.00
2019-05-10T21:09:33.854Z,100543.41
2019-05-10T21:11:40.190Z,100546.03
2019-05-10T21:13:46.866Z,100546.09
2019-05-10T21:15:54.518Z,100553.58
2019-05-10T21:18:01.643Z,100551.48
2019-05-10T21:20:10.056Z,100555.47
2019-05-10T21:22:17.527Z,100550.34
2019-05-10T21:24:23.905Z,100546.14
2019-05-10T21:26:32.457Z,100554.54
2019-05-10T21:28:39.401Z,100556.80
2019-05-10T21:30:46.226Z,100560.21
2019-05-10T21:32:54.062Z,100555.35
2019-05-10T21:35:03.156Z,100548.24
2019-05-10T21:37:09.789Z,100547.70
2019-05-10T21:39:16.524Z,100546.02
2019-05-10T21:41:23.103Z,100546.92
2019-05-10T21:43:29.527Z,100545.73
2019-05-10T21:45:36.048Z,100548.95
2019-05-10T21:47:51.577Z,100550.80
2019-05-10T21:49:52.645Z,100553.56
2019-05-10T21:52:01.008Z,100554.59
2019-05-10T21:54:07.733Z,100553.86
2019-05-10T21:56:14.096Z,100554.03
2019-05-10T21:58:25.783Z,100559.62
2019-05-10T22:00:43.009Z,100557.31
2019-05-10T22:02:49.733Z,100557.05
2019-05-10T22:04:56.510Z,100555.52
2019-05-10T22:07:03.356Z,100556.22
2019-05-10T22:09:10.927Z,100559.05
2019-05-10T22:11:17.600Z,100560.11
2019-05-10T22:13:24.212Z,100562.53
2019-05-10T22:15:30.623Z,100570.58
2019-05-10T22:17:37.512Z,100569.50
2019-05-10T22:19:45.617Z,100571.84
2019-05-10T22:21:55.199Z,100572.37
2019-05-10T22:24:00.375Z,100575.04
2019-05-10T22:26:06.860Z,100574.88
2019-05-10T22:28:13.229Z,100576.60
2019-05-10T22:30:19.783Z,100576.53
2019-05-10T22:32:27.047Z,100585.98
2019-05-10T22:34:33.523Z,100581.55
2019-05-10T22:36:40.131Z,100576.78
2019-05-10T22:38:46.435Z,100579.41
2019-05-10T22:40:53.107Z,100579.00
2019-05-10T22:43:01.740Z,100582.94
2019-05-10T22:45:09.312Z,100586.02
2019-05-10T22:47:15.945Z,100590.49
2019-05-10T22:49:22.515Z,100590.08
2019-05-10T22:51:29.646Z,100588.31
2019-05-10T22:53:37.437Z,100583.39
2019-05-10T22:55:43.852Z,100586.80
2019-05-10T22:57:50.686Z,100590.59
2019-05-10T22:59:57.035Z,100593.92
2019-05-10T23:02:03.606Z,100589.86
2019-05-10T23:04:10.569Z,100588.92
2019-05-10T23:06:16.939Z,100588.02
2019-05-10T23:08:23.306Z,100590.19
2019-05-10T23:10:38.270Z,100592.30
2019-05-10T23:12:44.629Z,100585.72
2019-05-10T23:14:52.956Z,100586.98
2019-05-10T23:16:59.747Z,100591.39
2019-05-10T23:19:06.086Z,100591.39
2019-05-10T23:21:13.976Z,100591.31
2019-05-10T23:23:21.121Z,100591.31
2019-05-10T23:25:28.228Z,100591.80
2019-05-10T23:27:34.666Z,100592.63
2019-05-10T23:29:43.735Z,100589.09
2019-05-10T23:31:50.078Z,100586.53
2019-05-10T23:33:56.898Z,100589.63
2019-05-10T23:36:03.218Z,100591.84
2019-05-10T23:38:10.887Z,100584.41
2019-05-10T23:40:17.392Z,100589.73
2019-05-10T23:42:23.839Z,100581.97
2019-05-10T23:44:30.516Z,100581.56
2019-05-10T23:46:37.240Z,100579.50
2019-05-10T23:48:43.912Z,100577.45
2019-05-10T23:50:50.516Z,100579.33
2019-05-10T23:52:56.897Z,100579.86
2019-05-10T23:55:03.252Z,100580.43
2019-05-10T23:57:10.113Z,100575.67
2019-05-10T23:59:16.488Z,100576.72
